sensor_id;sensor_type;location;lat;lon;timestamp;temperature;humidity
34877;DHT22;21086;44.780;17.194;2023-05-24T00:00:20;17.40;99.90
34877;DHT22;21086;44.780;17.194;2023-05-24T00:02:48;17.40;99.90
34877;DHT22;21086;44.780;17.194;2023-05-24T00:05:15;17.50;99.90
34877;DHT22;21086;44.780;17.194;2023-05-24T00:07:44;17.40;99.90
34877;DHT22;21086;44.780;17.194;2023-05-24T00:10:12;17.40;99.90
34877;DHT22;21086;44.780;17.194;2023-05-24T00:12:39;17.30;99.90
34877;DHT22;21086;44.780;17.194;2023-05-24T00:15:06;17.20;99.90
34877;DHT22;21086;44.780;17.194;2023-05-24T00:17:34;17.20;99.90
34877;DHT22;21086;44.780;17.194;2023-05-24T00:20:10;17.30;99.90
34877;DHT22;21086;44.780;17.194;2023-05-24T00:22:38;17.30;99.90
34877;DHT22;21086;44.780;17.194;2023-05-24T00:25:06;17.20;99.90
34877;DHT22;21086;44.780;17.194;2023-05-24T00:27:33;17.00;99.90
34877;DHT22;21086;44.780;17.194;2023-05-24T00:30:04;17.10;99.90
34877;DHT22;21086;44.780;17.194;2023-05-24T00:32:31;16.90;99.90
34877;DHT22;21086;44.780;17.194;2023-05-24T00:34:59;16.80;99.90
34877;DHT22;21086;44.780;17.194;2023-05-24T00:37:26;16.80;99.90
34877;DHT22;21086;44.780;17.194;2023-05-24T00:39:55;16.80;99.90
34877;DHT22;21086;44.780;17.194;2023-05-24T00:42:22;16.90;99.90
34877;DHT22;21086;44.780;17.194;2023-05-24T00:44:49;16.90;99.90
34877;DHT22;21086;44.780;17.194;2023-05-24T00:47:16;16.90;99.90
34877;DHT22;21086;44.780;17.194;2023-05-24T00:49:43;16.80;99.90
34877;DHT22;21086;44.780;17.194;2023-05-24T00:52:10;16.70;99.90
34877;DHT22;21086;44.780;17.194;2023-05-24T00:54:37;16.70;99.90
34877;DHT22;21086;44.780;17.194;2023-05-24T00:57:06;16.70;99.90
34877;DHT22;21086;44.780;17.194;2023-05-24T00:59:33;16.70;99.90
34877;DHT22;21086;44.780;17.194;2023-05-24T01:02:00;16.80;99.90
34877;DHT22;21086;44.780;17.194;2023-05-24T01:04:28;16.80;99.90
34877;DHT22;21086;44.780;17.194;2023-05-24T01:07:23;16.70;99.90
34877;DHT22;21086;44.780;17.194;2023-05-24T01:18:15;16.60;99.90
34877;DHT22;21086;44.780;17.194;2023-05-24T01:20:43;16.60;99.90
34877;DHT22;21086;44.780;17.194;2023-05-24T01:23:46;16.60;99.90
34877;DHT22;21086;44.780;17.194;2023-05-24T01:28:59;16.60;99.90
34877;DHT22;21086;44.780;17.194;2023-05-24T01:31:27;16.70;99.90
34877;DHT22;21086;44.780;17.194;2023-05-24T01:33:54;16.70;99.90
34877;DHT22;21086;44.780;17.194;2023-05-24T01:36:21;16.70;99.90
34877;DHT22;21086;44.780;17.194;2023-05-24T01:38:50;16.70;99.90
34877;DHT22;21086;44.780;17.194;2023-05-24T01:41:21;16.70;99.90
34877;DHT22;21086;44.780;17.194;2023-05-24T01:46:37;16.40;99.90
34877;DHT22;21086;44.780;17.194;2023-05-24T01:49:10;16.40;99.90
34877;DHT22;21086;44.780;17.194;2023-05-24T01:51:49;16.30;99.90
34877;DHT22;21086;44.780;17.194;2023-05-24T01:54:20;16.30;99.90
34877;DHT22;21086;44.780;17.194;2023-05-24T01:56:54;16.20;99.90
34877;DHT22;21086;44.780;17.194;2023-05-24T01:59:25;16.10;99.90
34877;DHT22;21086;44.780;17.194;2023-05-24T02:01:52;16.10;99.90
34877;DHT22;21086;44.780;17.194;2023-05-24T02:04:19;16.20;99.90
34877;DHT22;21086;44.780;17.194;2023-05-24T02:06:46;16.10;99.90
34877;DHT22;21086;44.780;17.194;2023-05-24T02:09:13;16.00;99.90
34877;DHT22;21086;44.780;17.194;2023-05-24T02:11:40;16.10;99.90
34877;DHT22;21086;44.780;17.194;2023-05-24T02:14:08;16.10;99.90
34877;DHT22;21086;44.780;17.194;2023-05-24T02:16:35;16.00;99.90
34877;DHT22;21086;44.780;17.194;2023-05-24T02:19:08;16.00;99.90
34877;DHT22;21086;44.780;17.194;2023-05-24T02:21:35;16.20;99.90
34877;DHT22;21086;44.780;17.194;2023-05-24T02:24:02;16.20;99.90
34877;DHT22;21086;44.780;17.194;2023-05-24T02:26:29;16.20;99.90
34877;DHT22;21086;44.780;17.194;2023-05-24T02:28:57;16.20;99.90
34877;DHT22;21086;44.780;17.194;2023-05-24T02:31:23;16.30;99.90
34877;DHT22;21086;44.780;17.194;2023-05-24T02:33:58;16.30;99.90
34877;DHT22;21086;44.780;17.194;2023-05-24T02:36:25;16.10;99.90
34877;DHT22;21086;44.780;17.194;2023-05-24T02:38:52;16.00;99.90
34877;DHT22;21086;44.780;17.194;2023-05-24T02:41:19;15.90;99.90
34877;DHT22;21086;44.780;17.194;2023-05-24T02:43:46;15.80;99.90
34877;DHT22;21086;44.780;17.194;2023-05-24T02:46:14;15.90;99.90
34877;DHT22;21086;44.780;17.194;2023-05-24T02:48:44;15.80;99.90
34877;DHT22;21086;44.780;17.194;2023-05-24T02:51:14;15.90;99.90
34877;DHT22;21086;44.780;17.194;2023-05-24T02:53:41;15.90;99.90
34877;DHT22;21086;44.780;17.194;2023-05-24T02:56:09;15.90;99.90
34877;DHT22;21086;44.780;17.194;2023-05-24T02:58:36;16.00;99.90
34877;DHT22;21086;44.780;17.194;2023-05-24T03:01:07;15.90;99.90
34877;DHT22;21086;44.780;17.194;2023-05-24T03:03:34;15.90;99.90
34877;DHT22;21086;44.780;17.194;2023-05-24T03:06:01;15.80;99.90
34877;DHT22;21086;44.780;17.194;2023-05-24T03:08:29;15.80;99.90
34877;DHT22;21086;44.780;17.194;2023-05-24T03:10:56;15.80;99.90
34877;DHT22;21086;44.780;17.194;2023-05-24T03:13:23;15.80;99.90
34877;DHT22;21086;44.780;17.194;2023-05-24T03:15:50;16.00;99.90
34877;DHT22;21086;44.780;17.194;2023-05-24T03:18:17;16.10;99.90
34877;DHT22;21086;44.780;17.194;2023-05-24T03:20:44;16.10;99.90
34877;DHT22;21086;44.780;17.194;2023-05-24T03:23:11;16.10;99.90
34877;DHT22;21086;44.780;17.194;2023-05-24T03:25:38;15.90;99.90
34877;DHT22;21086;44.780;17.194;2023-05-24T03:28:05;16.00;99.90
34877;DHT22;21086;44.780;17.194;2023-05-24T03:30:32;15.90;99.90
34877;DHT22;21086;44.780;17.194;2023-05-24T03:32:59;15.90;99.90
34877;DHT22;21086;44.780;17.194;2023-05-24T03:35:27;15.80;99.90
34877;DHT22;21086;44.780;17.194;2023-05-24T03:37:54;15.80;99.90
34877;DHT22;21086;44.780;17.194;2023-05-24T03:40:21;15.40;99.90
34877;DHT22;21086;44.780;17.194;2023-05-24T03:42:48;15.90;99.90
34877;DHT22;21086;44.780;17.194;2023-05-24T03:45:15;15.90;99.90
34877;DHT22;21086;44.780;17.194;2023-05-24T03:47:56;16.10;99.90
34877;DHT22;21086;44.780;17.194;2023-05-24T03:50:24;16.10;99.90
34877;DHT22;21086;44.780;17.194;2023-05-24T03:52:51;16.20;99.90
34877;DHT22;21086;44.780;17.194;2023-05-24T03:55:19;16.20;99.90
34877;DHT22;21086;44.780;17.194;2023-05-24T03:57:46;16.40;99.90
34877;DHT22;21086;44.780;17.194;2023-05-24T04:00:13;16.40;99.90
34877;DHT22;21086;44.780;17.194;2023-05-24T04:02:40;16.50;99.90
34877;DHT22;21086;44.780;17.194;2023-05-24T04:05:09;16.50;99.90
34877;DHT22;21086;44.780;17.194;2023-05-24T04:07:36;16.60;99.90
34877;DHT22;21086;44.780;17.194;2023-05-24T04:10:04;16.60;99.90
34877;DHT22;21086;44.780;17.194;2023-05-24T04:12:32;16.80;99.90
34877;DHT22;21086;44.780;17.194;2023-05-24T04:14:59;16.90;99.90
34877;DHT22;21086;44.780;17.194;2023-05-24T04:17:27;16.90;99.90
34877;DHT22;21086;44.780;17.194;2023-05-24T04:20:01;16.80;99.90
34877;DHT22;21086;44.780;17.194;2023-05-24T04:22:29;16.90;99.90
34877;DHT22;21086;44.780;17.194;2023-05-24T04:24:56;17.00;99.90
34877;DHT22;21086;44.780;17.194;2023-05-24T04:27:23;17.10;99.90
34877;DHT22;21086;44.780;17.194;2023-05-24T04:29:52;17.20;99.90
34877;DHT22;21086;44.780;17.194;2023-05-24T04:32:20;17.40;99.90
34877;DHT22;21086;44.780;17.194;2023-05-24T04:34:47;17.30;99.90
34877;DHT22;21086;44.780;17.194;2023-05-24T04:37:14;17.40;99.90
34877;DHT22;21086;44.780;17.194;2023-05-24T04:39:43;17.50;99.90
34877;DHT22;21086;44.780;17.194;2023-05-24T04:42:11;17.50;99.90
34877;DHT22;21086;44.780;17.194;2023-05-24T04:44:39;17.60;99.90
34877;DHT22;21086;44.780;17.194;2023-05-24T04:47:07;17.60;99.90
34877;DHT22;21086;44.780;17.194;2023-05-24T04:49:34;17.70;99.90
34877;DHT22;21086;44.780;17.194;2023-05-24T04:52:01;17.80;99.90
34877;DHT22;21086;44.780;17.194;2023-05-24T04:54:28;17.90;99.90
34877;DHT22;21086;44.780;17.194;2023-05-24T04:56:55;18.00;99.90
34877;DHT22;21086;44.780;17.194;2023-05-24T04:59:23;18.20;99.90
34877;DHT22;21086;44.780;17.194;2023-05-24T05:01:50;18.20;99.90
34877;DHT22;21086;44.780;17.194;2023-05-24T05:04:18;18.40;99.90
34877;DHT22;21086;44.780;17.194;2023-05-24T05:06:45;18.50;99.90
34877;DHT22;21086;44.780;17.194;2023-05-24T05:09:14;18.60;99.90
34877;DHT22;21086;44.780;17.194;2023-05-24T05:11:41;18.60;99.90
34877;DHT22;21086;44.780;17.194;2023-05-24T05:14:09;18.80;99.90
34877;DHT22;21086;44.780;17.194;2023-05-24T05:16:37;18.80;99.90
34877;DHT22;21086;44.780;17.194;2023-05-24T05:19:04;18.90;99.90
34877;DHT22;21086;44.780;17.194;2023-05-24T05:21:32;19.00;99.90
34877;DHT22;21086;44.780;17.194;2023-05-24T05:24:00;19.00;99.90
34877;DHT22;21086;44.780;17.194;2023-05-24T05:26:28;18.90;99.90
34877;DHT22;21086;44.780;17.194;2023-05-24T05:28:58;19.00;99.90
34877;DHT22;21086;44.780;17.194;2023-05-24T05:31:25;19.10;99.90
34877;DHT22;21086;44.780;17.194;2023-05-24T05:33:53;19.30;99.90
34877;DHT22;21086;44.780;17.194;2023-05-24T05:36:20;19.40;99.90
34877;DHT22;21086;44.780;17.194;2023-05-24T05:38:46;19.70;99.90
34877;DHT22;21086;44.780;17.194;2023-05-24T05:41:13;19.90;99.90
34877;DHT22;21086;44.780;17.194;2023-05-24T05:43:41;20.20;99.90
34877;DHT22;21086;44.780;17.194;2023-05-24T05:46:07;20.40;99.90
34877;DHT22;21086;44.780;17.194;2023-05-24T05:48:36;20.50;99.90
34877;DHT22;21086;44.780;17.194;2023-05-24T05:51:04;20.70;99.90
34877;DHT22;21086;44.780;17.194;2023-05-24T05:53:33;20.90;99.90
34877;DHT22;21086;44.780;17.194;2023-05-24T05:56:00;21.00;99.90
34877;DHT22;21086;44.780;17.194;2023-05-24T05:58:27;21.20;99.90
34877;DHT22;21086;44.780;17.194;2023-05-24T06:00:54;21.30;99.90
34877;DHT22;21086;44.780;17.194;2023-05-24T06:03:21;21.40;99.90
34877;DHT22;21086;44.780;17.194;2023-05-24T06:05:48;21.50;99.90
34877;DHT22;21086;44.780;17.194;2023-05-24T06:08:15;21.60;99.90
34877;DHT22;21086;44.780;17.194;2023-05-24T06:10:42;21.60;99.90
34877;DHT22;21086;44.780;17.194;2023-05-24T06:13:09;21.60;99.90
34877;DHT22;21086;44.780;17.194;2023-05-24T06:15:36;21.70;99.90
34877;DHT22;21086;44.780;17.194;2023-05-24T06:18:03;21.90;99.90
34877;DHT22;21086;44.780;17.194;2023-05-24T06:20:31;22.00;99.90
34877;DHT22;21086;44.780;17.194;2023-05-24T06:22:58;21.90;99.90
34877;DHT22;21086;44.780;17.194;2023-05-24T06:25:25;22.00;99.90
34877;DHT22;21086;44.780;17.194;2023-05-24T06:27:56;22.00;99.90
34877;DHT22;21086;44.780;17.194;2023-05-24T06:30:23;22.10;99.90
34877;DHT22;21086;44.780;17.194;2023-05-24T06:32:51;22.20;99.90
34877;DHT22;21086;44.780;17.194;2023-05-24T06:35:19;22.00;99.90
34877;DHT22;21086;44.780;17.194;2023-05-24T06:37:46;21.90;99.90
34877;DHT22;21086;44.780;17.194;2023-05-24T06:40:13;21.80;99.90
34877;DHT22;21086;44.780;17.194;2023-05-24T06:42:40;22.00;99.90
34877;DHT22;21086;44.780;17.194;2023-05-24T06:45:07;22.20;99.90
34877;DHT22;21086;44.780;17.194;2023-05-24T06:47:35;22.00;99.90
34877;DHT22;21086;44.780;17.194;2023-05-24T06:50:03;22.00;99.90
34877;DHT22;21086;44.780;17.194;2023-05-24T06:52:30;22.20;99.90
34877;DHT22;21086;44.780;17.194;2023-05-24T06:54:57;22.40;99.90
34877;DHT22;21086;44.780;17.194;2023-05-24T06:57:25;22.50;99.90
34877;DHT22;21086;44.780;17.194;2023-05-24T06:59:52;22.50;99.90
34877;DHT22;21086;44.780;17.194;2023-05-24T07:02:19;22.40;99.90
34877;DHT22;21086;44.780;17.194;2023-05-24T07:04:52;22.70;99.90
34877;DHT22;21086;44.780;17.194;2023-05-24T07:07:20;22.80;99.90
34877;DHT22;21086;44.780;17.194;2023-05-24T07:09:47;22.70;99.90
34877;DHT22;21086;44.780;17.194;2023-05-24T07:12:14;22.70;99.90
34877;DHT22;21086;44.780;17.194;2023-05-24T07:14:41;22.50;99.90
34877;DHT22;21086;44.780;17.194;2023-05-24T07:17:08;22.50;99.90
34877;DHT22;21086;44.780;17.194;2023-05-24T07:19:37;22.50;99.90
34877;DHT22;21086;44.780;17.194;2023-05-24T07:22:04;22.00;99.90
34877;DHT22;21086;44.780;17.194;2023-05-24T07:24:32;22.20;99.90
34877;DHT22;21086;44.780;17.194;2023-05-24T07:26:59;22.40;99.90
34877;DHT22;21086;44.780;17.194;2023-05-24T07:29:26;22.30;99.90
34877;DHT22;21086;44.780;17.194;2023-05-24T07:31:53;22.50;99.90
34877;DHT22;21086;44.780;17.194;2023-05-24T07:34:21;22.70;99.90
34877;DHT22;21086;44.780;17.194;2023-05-24T07:36:49;22.90;99.90
34877;DHT22;21086;44.780;17.194;2023-05-24T07:39:17;23.10;99.90
34877;DHT22;21086;44.780;17.194;2023-05-24T07:41:44;23.20;99.90
34877;DHT22;21086;44.780;17.194;2023-05-24T07:44:12;23.30;99.90
34877;DHT22;21086;44.780;17.194;2023-05-24T07:46:39;23.00;99.90
34877;DHT22;21086;44.780;17.194;2023-05-24T07:49:06;23.20;99.90
34877;DHT22;21086;44.780;17.194;2023-05-24T07:51:33;23.50;99.90
34877;DHT22;21086;44.780;17.194;2023-05-24T07:54:00;23.90;99.90
34877;DHT22;21086;44.780;17.194;2023-05-24T07:56:27;24.30;99.90
34877;DHT22;21086;44.780;17.194;2023-05-24T07:58:53;24.60;99.90
34877;DHT22;21086;44.780;17.194;2023-05-24T08:01:25;24.90;99.90
34877;DHT22;21086;44.780;17.194;2023-05-24T08:03:52;25.00;99.90
34877;DHT22;21086;44.780;17.194;2023-05-24T08:06:19;25.00;99.90
34877;DHT22;21086;44.780;17.194;2023-05-24T08:08:46;25.10;99.90
34877;DHT22;21086;44.780;17.194;2023-05-24T08:11:13;25.00;99.90
34877;DHT22;21086;44.780;17.194;2023-05-24T08:13:40;24.90;99.90
34877;DHT22;21086;44.780;17.194;2023-05-24T08:16:07;24.70;99.90
34877;DHT22;21086;44.780;17.194;2023-05-24T08:18:34;24.80;99.90
34877;DHT22;21086;44.780;17.194;2023-05-24T08:21:01;24.90;99.90
34877;DHT22;21086;44.780;17.194;2023-05-24T08:23:29;24.90;99.90
34877;DHT22;21086;44.780;17.194;2023-05-24T08:25:56;24.90;99.90
34877;DHT22;21086;44.780;17.194;2023-05-24T08:28:25;24.80;99.90
34877;DHT22;21086;44.780;17.194;2023-05-24T08:30:52;24.80;99.90
34877;DHT22;21086;44.780;17.194;2023-05-24T08:33:19;25.00;99.90
34877;DHT22;21086;44.780;17.194;2023-05-24T08:35:49;25.00;99.90
34877;DHT22;21086;44.780;17.194;2023-05-24T08:38:17;25.20;99.90
34877;DHT22;21086;44.780;17.194;2023-05-24T08:40:46;25.20;99.90
34877;DHT22;21086;44.780;17.194;2023-05-24T08:43:13;25.20;99.90
34877;DHT22;21086;44.780;17.194;2023-05-24T08:45:41;25.40;99.90
34877;DHT22;21086;44.780;17.194;2023-05-24T08:48:09;25.80;99.90
34877;DHT22;21086;44.780;17.194;2023-05-24T08:50:39;26.00;99.90
34877;DHT22;21086;44.780;17.194;2023-05-24T08:53:07;26.20;99.90
34877;DHT22;21086;44.780;17.194;2023-05-24T08:55:35;26.40;99.90
34877;DHT22;21086;44.780;17.194;2023-05-24T08:58:03;26.60;99.90
34877;DHT22;21086;44.780;17.194;2023-05-24T09:00:30;26.70;99.90
34877;DHT22;21086;44.780;17.194;2023-05-24T09:02:58;27.00;99.90
34877;DHT22;21086;44.780;17.194;2023-05-24T09:05:26;27.20;99.90
34877;DHT22;21086;44.780;17.194;2023-05-24T09:07:55;27.30;99.90
34877;DHT22;21086;44.780;17.194;2023-05-24T09:10:23;27.40;99.90
34877;DHT22;21086;44.780;17.194;2023-05-24T09:12:54;27.10;99.90
34877;DHT22;21086;44.780;17.194;2023-05-24T09:15:22;27.10;99.90
34877;DHT22;21086;44.780;17.194;2023-05-24T09:17:49;26.70;99.90
34877;DHT22;21086;44.780;17.194;2023-05-24T09:20:16;26.90;99.90
34877;DHT22;21086;44.780;17.194;2023-05-24T09:22:49;27.00;99.90
34877;DHT22;21086;44.780;17.194;2023-05-24T09:25:18;27.10;99.90
34877;DHT22;21086;44.780;17.194;2023-05-24T09:27:50;27.10;99.90
34877;DHT22;21086;44.780;17.194;2023-05-24T09:30:19;26.80;99.90
34877;DHT22;21086;44.780;17.194;2023-05-24T09:32:58;26.90;99.90
34877;DHT22;21086;44.780;17.194;2023-05-24T09:35:27;27.00;99.90
34877;DHT22;21086;44.780;17.194;2023-05-24T09:37:58;27.20;99.90
34877;DHT22;21086;44.780;17.194;2023-05-24T09:40:28;27.20;99.90
34877;DHT22;21086;44.780;17.194;2023-05-24T09:43:05;27.10;99.90
34877;DHT22;21086;44.780;17.194;2023-05-24T09:45:45;27.00;99.90
34877;DHT22;21086;44.780;17.194;2023-05-24T09:48:15;27.20;99.90
34877;DHT22;21086;44.780;17.194;2023-05-24T09:50:43;27.40;99.90
34877;DHT22;21086;44.780;17.194;2023-05-24T09:53:16;27.60;99.90
34877;DHT22;21086;44.780;17.194;2023-05-24T09:55:45;27.60;99.90
34877;DHT22;21086;44.780;17.194;2023-05-24T09:58:12;27.70;99.90
34877;DHT22;21086;44.780;17.194;2023-05-24T10:00:41;27.80;99.90
34877;DHT22;21086;44.780;17.194;2023-05-24T10:03:10;27.80;99.90
34877;DHT22;21086;44.780;17.194;2023-05-24T10:05:42;28.00;99.90
34877;DHT22;21086;44.780;17.194;2023-05-24T10:08:10;28.10;99.90
34877;DHT22;21086;44.780;17.194;2023-05-24T10:10:37;28.00;99.90
34877;DHT22;21086;44.780;17.194;2023-05-24T10:13:05;28.20;99.90
34877;DHT22;21086;44.780;17.194;2023-05-24T10:15:31;28.20;99.90
34877;DHT22;21086;44.780;17.194;2023-05-24T10:17:58;28.10;99.90
34877;DHT22;21086;44.780;17.194;2023-05-24T10:20:28;28.20;99.90
34877;DHT22;21086;44.780;17.194;2023-05-24T10:23:03;28.30;99.90
34877;DHT22;21086;44.780;17.194;2023-05-24T10:25:34;28.30;99.90
34877;DHT22;21086;44.780;17.194;2023-05-24T10:28:07;28.30;99.90
34877;DHT22;21086;44.780;17.194;2023-05-24T10:31:09;28.40;99.90
34877;DHT22;21086;44.780;17.194;2023-05-24T10:33:35;28.40;99.90
34877;DHT22;21086;44.780;17.194;2023-05-24T10:36:07;28.70;99.90
34877;DHT22;21086;44.780;17.194;2023-05-24T10:38:39;28.60;99.90
34877;DHT22;21086;44.780;17.194;2023-05-24T10:41:07;28.50;99.90
34877;DHT22;21086;44.780;17.194;2023-05-24T10:43:36;28.60;99.90
34877;DHT22;21086;44.780;17.194;2023-05-24T10:46:06;28.60;99.90
34877;DHT22;21086;44.780;17.194;2023-05-24T10:48:35;28.40;99.90
34877;DHT22;21086;44.780;17.194;2023-05-24T10:54:18;28.10;99.90
34877;DHT22;21086;44.780;17.194;2023-05-24T10:56:49;28.50;99.90
34877;DHT22;21086;44.780;17.194;2023-05-24T11:01:59;29.00;99.90
34877;DHT22;21086;44.780;17.194;2023-05-24T11:04:36;28.80;99.90
34877;DHT22;21086;44.780;17.194;2023-05-24T11:07:05;28.70;99.90
34877;DHT22;21086;44.780;17.194;2023-05-24T11:09:38;28.70;99.90
34877;DHT22;21086;44.780;17.194;2023-05-24T11:12:17;28.60;99.90
34877;DHT22;21086;44.780;17.194;2023-05-24T11:14:51;28.70;99.90
34877;DHT22;21086;44.780;17.194;2023-05-24T11:17:22;28.90;99.90
34877;DHT22;21086;44.780;17.194;2023-05-24T11:19:51;29.00;99.90
34877;DHT22;21086;44.780;17.194;2023-05-24T11:22:22;29.20;99.90
34877;DHT22;21086;44.780;17.194;2023-05-24T11:24:50;29.40;99.90
34877;DHT22;21086;44.780;17.194;2023-05-24T11:27:18;29.60;99.90
34877;DHT22;21086;44.780;17.194;2023-05-24T11:29:46;29.80;99.90
34877;DHT22;21086;44.780;17.194;2023-05-24T11:32:18;29.70;99.90
34877;DHT22;21086;44.780;17.194;2023-05-24T11:34:46;29.60;99.90
34877;DHT22;21086;44.780;17.194;2023-05-24T11:37:14;29.80;99.90
34877;DHT22;21086;44.780;17.194;2023-05-24T11:39:49;30.00;99.90
34877;DHT22;21086;44.780;17.194;2023-05-24T11:42:20;30.10;99.90
34877;DHT22;21086;44.780;17.194;2023-05-24T11:44:48;30.10;99.90
34877;DHT22;21086;44.780;17.194;2023-05-24T11:47:15;30.10;99.90
34877;DHT22;21086;44.780;17.194;2023-05-24T11:49:49;29.90;99.90
34877;DHT22;21086;44.780;17.194;2023-05-24T11:52:16;29.90;99.90
34877;DHT22;21086;44.780;17.194;2023-05-24T11:54:43;30.00;99.90
34877;DHT22;21086;44.780;17.194;2023-05-24T11:57:13;30.10;99.90
34877;DHT22;21086;44.780;17.194;2023-05-24T11:59:41;30.30;99.90
34877;DHT22;21086;44.780;17.194;2023-05-24T12:02:08;30.40;99.90
34877;DHT22;21086;44.780;17.194;2023-05-24T12:04:36;30.40;99.90
34877;DHT22;21086;44.780;17.194;2023-05-24T12:07:03;30.30;99.90
34877;DHT22;21086;44.780;17.194;2023-05-24T12:09:31;30.20;99.90
34877;DHT22;21086;44.780;17.194;2023-05-24T12:11:58;30.30;99.90
34877;DHT22;21086;44.780;17.194;2023-05-24T12:14:29;30.30;99.90
34877;DHT22;21086;44.780;17.194;2023-05-24T12:16:58;30.40;99.90
34877;DHT22;21086;44.780;17.194;2023-05-24T12:19:32;30.40;99.90
34877;DHT22;21086;44.780;17.194;2023-05-24T12:22:04;30.60;99.90
34877;DHT22;21086;44.780;17.194;2023-05-24T12:24:33;30.80;99.90
34877;DHT22;21086;44.780;17.194;2023-05-24T12:27:01;30.90;99.90
34877;DHT22;21086;44.780;17.194;2023-05-24T12:29:38;31.30;99.90
34877;DHT22;21086;44.780;17.194;2023-05-24T12:32:08;32.00;99.90
34877;DHT22;21086;44.780;17.194;2023-05-24T12:34:41;32.70;99.90
34877;DHT22;21086;44.780;17.194;2023-05-24T12:37:10;33.30;99.90
34877;DHT22;21086;44.780;17.194;2023-05-24T12:39:39;33.90;99.90
34877;DHT22;21086;44.780;17.194;2023-05-24T12:42:09;34.30;99.90
34877;DHT22;21086;44.780;17.194;2023-05-24T12:44:38;34.10;99.90
34877;DHT22;21086;44.780;17.194;2023-05-24T12:47:06;33.80;99.90
34877;DHT22;21086;44.780;17.194;2023-05-24T12:49:34;33.90;99.90
34877;DHT22;21086;44.780;17.194;2023-05-24T12:52:02;33.80;99.90
34877;DHT22;21086;44.780;17.194;2023-05-24T12:54:30;34.40;99.90
34877;DHT22;21086;44.780;17.194;2023-05-24T12:56:57;34.40;99.90
34877;DHT22;21086;44.780;17.194;2023-05-24T12:59:32;33.30;99.90
34877;DHT22;21086;44.780;17.194;2023-05-24T13:01:59;32.50;99.90
34877;DHT22;21086;44.780;17.194;2023-05-24T13:04:26;32.10;99.90
34877;DHT22;21086;44.780;17.194;2023-05-24T13:06:54;31.90;99.90
34877;DHT22;21086;44.780;17.194;2023-05-24T13:09:21;31.80;99.90
34877;DHT22;21086;44.780;17.194;2023-05-24T13:11:50;31.60;99.90
34877;DHT22;21086;44.780;17.194;2023-05-24T13:14:18;31.80;99.90
34877;DHT22;21086;44.780;17.194;2023-05-24T13:16:47;34.60;99.90
34877;DHT22;21086;44.780;17.194;2023-05-24T13:19:14;36.80;99.90
34877;DHT22;21086;44.780;17.194;2023-05-24T13:21:42;38.30;99.90
34877;DHT22;21086;44.780;17.194;2023-05-24T13:24:12;39.90;99.90
34877;DHT22;21086;44.780;17.194;2023-05-24T13:26:40;41.50;99.90
34877;DHT22;21086;44.780;17.194;2023-05-24T13:29:07;42.90;99.90
34877;DHT22;21086;44.780;17.194;2023-05-24T13:31:37;44.60;99.90
34877;DHT22;21086;44.780;17.194;2023-05-24T13:34:06;45.60;99.90
34877;DHT22;21086;44.780;17.194;2023-05-24T13:36:35;46.40;99.90
34877;DHT22;21086;44.780;17.194;2023-05-24T13:39:04;44.30;99.90
34877;DHT22;21086;44.780;17.194;2023-05-24T13:41:42;44.00;99.90
34877;DHT22;21086;44.780;17.194;2023-05-24T13:44:11;45.30;99.90
34877;DHT22;21086;44.780;17.194;2023-05-24T13:46:39;46.10;99.90
34877;DHT22;21086;44.780;17.194;2023-05-24T13:49:08;47.00;99.90
34877;DHT22;21086;44.780;17.194;2023-05-24T13:51:35;48.30;99.90
34877;DHT22;21086;44.780;17.194;2023-05-24T13:54:03;47.80;99.90
34877;DHT22;21086;44.780;17.194;2023-05-24T13:56:32;46.00;99.90
34877;DHT22;21086;44.780;17.194;2023-05-24T13:59:03;45.70;99.90
34877;DHT22;21086;44.780;17.194;2023-05-24T14:01:32;45.30;99.90
34877;DHT22;21086;44.780;17.194;2023-05-24T14:04:00;44.80;99.90
34877;DHT22;21086;44.780;17.194;2023-05-24T14:06:28;42.00;99.90
34877;DHT22;21086;44.780;17.194;2023-05-24T14:08:56;39.30;99.90
34877;DHT22;21086;44.780;17.194;2023-05-24T14:11:23;37.10;99.90
34877;DHT22;21086;44.780;17.194;2023-05-24T14:13:53;35.30;99.90
34877;DHT22;21086;44.780;17.194;2023-05-24T14:16:23;33.70;99.90
34877;DHT22;21086;44.780;17.194;2023-05-24T14:18:51;32.00;99.90
34877;DHT22;21086;44.780;17.194;2023-05-24T14:21:18;30.70;99.90
34877;DHT22;21086;44.780;17.194;2023-05-24T14:23:47;29.90;99.90
34877;DHT22;21086;44.780;17.194;2023-05-24T14:26:15;29.10;99.90
34877;DHT22;21086;44.780;17.194;2023-05-24T14:28:42;28.80;99.90
34877;DHT22;21086;44.780;17.194;2023-05-24T14:31:09;28.20;99.90
34877;DHT22;21086;44.780;17.194;2023-05-24T14:33:36;28.10;99.90
34877;DHT22;21086;44.780;17.194;2023-05-24T14:36:04;27.80;99.90
34877;DHT22;21086;44.780;17.194;2023-05-24T14:38:31;27.60;99.90
34877;DHT22;21086;44.780;17.194;2023-05-24T14:40:59;27.50;99.90
34877;DHT22;21086;44.780;17.194;2023-05-24T14:43:27;27.30;99.90
34877;DHT22;21086;44.780;17.194;2023-05-24T14:45:54;27.00;99.90
34877;DHT22;21086;44.780;17.194;2023-05-24T14:48:22;26.80;99.90
34877;DHT22;21086;44.780;17.194;2023-05-24T14:50:49;26.60;99.90
34877;DHT22;21086;44.780;17.194;2023-05-24T14:53:16;26.50;99.90
34877;DHT22;21086;44.780;17.194;2023-05-24T14:55:43;26.30;99.90
34877;DHT22;21086;44.780;17.194;2023-05-24T14:58:11;26.00;99.90
34877;DHT22;21086;44.780;17.194;2023-05-24T15:00:39;25.00;99.90
34877;DHT22;21086;44.780;17.194;2023-05-24T15:03:07;24.20;99.90
34877;DHT22;21086;44.780;17.194;2023-05-24T15:05:34;23.70;99.90
34877;DHT22;21086;44.780;17.194;2023-05-24T15:08:02;23.10;99.90
34877;DHT22;21086;44.780;17.194;2023-05-24T15:10:31;22.50;99.90
34877;DHT22;21086;44.780;17.194;2023-05-24T15:12:58;22.20;99.90
34877;DHT22;21086;44.780;17.194;2023-05-24T15:15:27;22.10;99.90
34877;DHT22;21086;44.780;17.194;2023-05-24T15:17:54;21.50;99.90
34877;DHT22;21086;44.780;17.194;2023-05-24T15:20:23;19.20;99.90
34877;DHT22;21086;44.780;17.194;2023-05-24T15:22:51;18.00;99.90
34877;DHT22;21086;44.780;17.194;2023-05-24T15:25:19;17.40;99.90
34877;DHT22;21086;44.780;17.194;2023-05-24T15:27:46;17.20;99.90
34877;DHT22;21086;44.780;17.194;2023-05-24T15:30:14;17.10;99.90
34877;DHT22;21086;44.780;17.194;2023-05-24T15:32:43;17.40;99.90
34877;DHT22;21086;44.780;17.194;2023-05-24T15:35:12;17.50;99.90
34877;DHT22;21086;44.780;17.194;2023-05-24T15:37:41;17.50;99.90
34877;DHT22;21086;44.780;17.194;2023-05-24T15:40:09;17.50;99.90
34877;DHT22;21086;44.780;17.194;2023-05-24T15:42:38;17.40;99.90